Time;durP1;ratioP1;P1;durP2;ratioP2;P2;SDS_P1;SDS_P2;PMS_P1;PMS_P2;Temp;Humidity;BMP_temperature;BMP_pressure;BME280_temperature;BME280_humidity;BME280_pressure;Samples;Min_cycle;Max_cycle;Signal;HPM_P1;HPM_P2
2023/11/10 00:00:38;;;;;;;4.00;0.87;;;8.00;99.90;;;;;;4946598;28;37485;-75
2023/11/10 00:03:05;;;;;;;2.50;1.03;;;8.00;99.90;;;;;;4948544;28;37471;-76
2023/11/10 00:05:32;;;;;;;4.47;0.77;;;7.90;99.90;;;;;;4963310;28;39135;-75
2023/11/10 00:07:59;;;;;;;2.40;1.00;;;7.90;99.90;;;;;;4951468;28;36976;-75
2023/11/10 00:10:28;;;;;;;4.13;0.97;;;7.90;99.90;;;;;;4960067;28;38090;-75
2023/11/10 00:12:55;;;;;;;8.53;1.53;;;7.90;99.90;;;;;;4961794;28;39265;-76
2023/11/10 00:15:24;;;;;;;2.90;1.10;;;7.90;99.90;;;;;;4955280;28;37633;-76
2023/11/10 00:17:51;;;;;;;6.13;1.00;;;8.00;99.90;;;;;;4944643;28;37021;-75
2023/11/10 00:20:17;;;;;;;4.63;1.53;;;8.00;99.90;;;;;;4951976;28;36346;-75
2023/11/10 00:22:43;;;;;;;4.57;1.47;;;8.00;99.90;;;;;;4969535;28;38169;-76
2023/11/10 00:25:11;;;;;;;3.73;1.43;;;8.00;99.90;;;;;;4950043;28;37631;-76
2023/11/10 00:27:37;;;;;;;4.60;1.30;;;8.00;99.90;;;;;;4966629;28;37932;-76
2023/11/10 00:30:04;;;;;;;5.40;1.40;;;8.00;99.90;;;;;;4965828;28;37190;-76
2023/11/10 00:32:30;;;;;;;4.60;1.60;;;8.10;99.90;;;;;;4957283;28;46800;-77
2023/11/10 00:34:56;;;;;;;1.80;1.00;;;8.10;99.90;;;;;;4974512;28;38594;-76
2023/11/10 00:37:22;;;;;;;6.83;1.47;;;8.10;99.90;;;;;;4952289;28;37045;-76
2023/11/10 00:39:49;;;;;;;4.73;1.60;;;8.10;99.90;;;;;;4948559;28;36260;-76
2023/11/10 00:42:15;;;;;;;3.40;1.00;;;8.10;99.90;;;;;;4941149;28;37913;-76
2023/11/10 00:44:41;;;;;;;2.93;1.20;;;8.10;99.90;;;;;;4944792;28;37452;-76
2023/11/10 00:47:08;;;;;;;2.97;1.20;;;8.20;99.90;;;;;;4963720;28;38831;-76
2023/11/10 00:49:34;;;;;;;3.03;1.13;;;8.20;99.90;;;;;;4948995;28;36383;-76
2023/11/10 00:52:00;;;;;;;3.30;1.10;;;8.20;99.90;;;;;;4951202;28;37792;-76
2023/11/10 00:54:26;;;;;;;4.07;1.30;;;8.30;99.90;;;;;;4950148;28;38757;-76
2023/11/10 00:56:52;;;;;;;4.27;1.27;;;8.30;99.90;;;;;;4966025;28;39104;-77
2023/11/10 00:59:18;;;;;;;3.97;1.43;;;8.30;99.90;;;;;;4958764;28;37219;-76
2023/11/10 01:01:44;;;;;;;4.30;1.37;;;8.40;99.90;;;;;;4952599;28;37633;-76
2023/11/10 01:04:10;;;;;;;5.43;1.80;;;8.40;99.90;;;;;;4954394;28;37572;-77
2023/11/10 01:06:37;;;;;;;4.47;2.43;;;8.40;99.90;;;;;;4969995;28;38731;-75
2023/11/10 01:09:03;;;;;;;7.33;2.57;;;8.40;99.90;;;;;;4969252;28;38070;-76
2023/11/10 01:11:29;;;;;;;3.53;1.83;;;8.40;99.90;;;;;;4952883;28;38100;-76
2023/11/10 01:13:55;;;;;;;5.47;2.13;;;8.30;99.90;;;;;;4949144;28;38182;-76
2023/11/10 01:16:22;;;;;;;4.20;1.30;;;8.30;99.90;;;;;;4957278;28;36700;-76
2023/11/10 01:18:48;;;;;;;6.87;1.80;;;8.30;99.90;;;;;;4970118;28;37814;-76
2023/11/10 01:21:15;;;;;;;6.00;1.33;;;8.30;99.90;;;;;;4966191;28;38390;-76
2023/11/10 01:23:45;;;;;;;3.77;1.63;;;8.20;99.90;;;;;;4961717;28;38900;-76
2023/11/10 01:26:12;;;;;;;4.63;1.00;;;8.20;99.90;;;;;;4963486;28;37692;-76
2023/11/10 01:28:38;;;;;;;3.57;0.90;;;8.20;99.90;;;;;;4966450;28;37232;-76
2023/11/10 01:31:04;;;;;;;3.87;1.27;;;8.20;99.90;;;;;;4946559;28;38817;-76
2023/11/10 01:33:31;;;;;;;3.40;0.90;;;8.20;99.90;;;;;;4960944;28;38525;-76
2023/11/10 01:35:57;;;;;;;3.80;1.63;;;8.10;99.90;;;;;;4957845;28;38991;-76
2023/11/10 01:38:23;;;;;;;2.27;1.13;;;8.10;99.90;;;;;;4942235;28;36696;-76
2023/11/10 01:40:50;;;;;;;1.47;0.73;;;8.10;99.90;;;;;;4940661;28;39442;-75
2023/11/10 01:43:16;;;;;;;3.90;0.93;;;8.00;99.90;;;;;;4954392;28;40114;-76
2023/11/10 01:45:46;;;;;;;4.10;0.90;;;8.00;99.90;;;;;;4950307;28;38255;-76
2023/11/10 01:48:13;;;;;;;2.43;0.97;;;8.10;99.90;;;;;;4970883;28;38109;-76
2023/11/10 01:50:45;;;;;;;3.30;0.70;;;8.00;99.90;;;;;;4946259;28;40581;-76
2023/11/10 01:53:13;;;;;;;3.50;0.60;;;8.00;99.90;;;;;;4957315;28;38917;-76
2023/11/10 01:55:41;;;;;;;3.23;0.73;;;8.00;99.90;;;;;;4947287;28;40117;-76
2023/11/10 01:58:11;;;;;;;3.50;0.80;;;7.90;99.90;;;;;;4964945;28;36995;-76
2023/11/10 02:03:13;;;;;;;8.10;1.30;;;8.00;99.90;;;;;;5195116;23;20052;-76
2023/11/10 02:05:40;;;;;;;2.73;0.80;;;8.10;99.90;;;;;;4958355;28;36993;-75
2023/11/10 02:08:09;;;;;;;3.57;1.00;;;8.10;99.90;;;;;;4956385;28;38234;-75
2023/11/10 02:10:39;;;;;;;7.07;1.23;;;8.10;99.90;;;;;;4943890;28;39219;-75
2023/11/10 02:13:05;;;;;;;4.83;1.10;;;8.10;99.90;;;;;;4940153;28;38723;-76
2023/11/10 02:15:31;;;;;;;5.80;1.20;;;8.10;99.90;;;;;;4934494;28;38662;-76
2023/11/10 02:17:57;;;;;;;4.20;1.50;;;8.10;99.90;;;;;;4951881;28;37015;-75
2023/11/10 02:20:31;;;;;;;9.50;2.40;;;8.10;99.90;;;;;;4932745;28;37048;-75
2023/11/10 02:22:58;;;;;;;5.97;1.20;;;8.10;99.90;;;;;;4947789;28;38468;-76
2023/11/10 02:25:26;;;;;;;7.10;1.63;;;8.10;99.90;;;;;;4949683;28;37806;-75
2023/11/10 02:27:53;;;;;;;7.87;1.67;;;8.00;99.90;;;;;;4931998;28;35968;-76
2023/11/10 02:30:22;;;;;;;5.70;1.43;;;8.10;99.90;;;;;;4930790;28;39029;-75
2023/11/10 02:32:49;;;;;;;5.67;1.40;;;8.10;99.90;;;;;;4931621;28;38804;-76
2023/11/10 02:35:15;;;;;;;6.27;1.50;;;8.10;99.90;;;;;;4935434;28;36378;-75
2023/11/10 02:37:46;;;;;;;8.67;2.20;;;8.10;99.90;;;;;;4950792;28;37473;-76
2023/11/10 02:40:13;;;;;;;5.63;1.70;;;8.10;99.90;;;;;;4946874;28;40020;-76
2023/11/10 02:42:40;;;;;;;6.23;1.70;;;8.00;99.90;;;;;;4927709;28;37721;-76
2023/11/10 02:45:09;;;;;;;6.53;1.50;;;8.00;99.90;;;;;;4935415;28;37188;-74
2023/11/10 02:47:35;;;;;;;5.57;2.00;;;7.90;99.90;;;;;;4935472;28;36225;-76
2023/11/10 02:50:02;;;;;;;4.97;1.60;;;7.90;99.90;;;;;;4943841;28;37609;-75
2023/11/10 02:52:28;;;;;;;5.90;1.60;;;7.90;99.90;;;;;;4934591;28;38173;-76
2023/11/10 02:54:54;;;;;;;8.33;1.70;;;7.90;99.90;;;;;;4954597;28;36465;-76
2023/11/10 02:57:21;;;;;;;4.43;1.30;;;7.90;99.90;;;;;;4940178;28;35760;-75
2023/11/10 02:59:48;;;;;;;8.33;1.80;;;7.80;99.90;;;;;;4948060;28;37554;-76
2023/11/10 03:02:16;;;;;;;6.07;1.50;;;7.80;99.90;;;;;;4935548;28;37890;-76
2023/11/10 03:04:42;;;;;;;6.83;1.77;;;7.90;99.90;;;;;;4934934;28;37382;-76
2023/11/10 03:07:10;;;;;;;7.53;1.60;;;7.90;99.90;;;;;;4954153;28;37391;-75
2023/11/10 03:09:36;;;;;;;8.10;1.70;;;8.00;99.90;;;;;;4933637;28;37633;-75
2023/11/10 03:12:03;;;;;;;3.87;1.40;;;8.00;99.90;;;;;;4932379;28;37541;-75
2023/11/10 03:14:29;;;;;;;5.03;1.93;;;8.00;99.90;;;;;;4954868;28;37103;-75
2023/11/10 03:16:55;;;;;;;7.87;1.43;;;8.00;99.90;;;;;;4950888;28;37429;-76
2023/11/10 03:19:21;;;;;;;9.00;1.40;;;8.00;99.90;;;;;;4933105;28;39393;-75
2023/11/10 03:21:48;;;;;;;7.90;1.20;;;7.90;99.90;;;;;;4952487;28;38587;-75
2023/11/10 03:24:14;;;;;;;6.33;1.37;;;7.90;99.90;;;;;;4930961;28;37061;-76
2023/11/10 03:26:40;;;;;;;4.40;1.30;;;7.90;99.90;;;;;;4942820;28;37247;-76
2023/11/10 03:29:07;;;;;;;6.17;1.43;;;8.00;99.90;;;;;;4924110;28;37707;-76
2023/11/10 03:31:33;;;;;;;6.70;1.77;;;8.00;99.90;;;;;;4932000;28;38486;-76
2023/11/10 03:33:59;;;;;;;4.43;1.23;;;8.00;99.90;;;;;;4950969;28;37911;-75
2023/11/10 03:36:25;;;;;;;6.23;1.50;;;8.10;99.90;;;;;;4932088;28;36408;-76
2023/11/10 03:38:52;;;;;;;3.67;1.07;;;8.00;99.90;;;;;;4928620;28;38814;-75
2023/11/10 03:41:18;;;;;;;4.93;1.40;;;8.00;99.90;;;;;;4954169;28;38337;-75
2023/11/10 03:43:44;;;;;;;12.97;1.80;;;8.00;99.90;;;;;;4948908;28;38316;-75
2023/11/10 03:46:11;;;;;;;10.50;1.60;;;7.90;99.90;;;;;;4947814;28;36157;-75
2023/11/10 03:48:37;;;;;;;4.60;1.20;;;7.90;99.90;;;;;;4940011;28;39195;-75
2023/11/10 03:51:12;;;;;;;8.63;1.47;;;7.90;99.90;;;;;;4955055;28;38356;-75
2023/11/10 03:53:41;;;;;;;10.07;2.03;;;8.00;99.90;;;;;;4937362;28;37077;-75
2023/11/10 03:56:08;;;;;;;9.63;1.60;;;7.90;99.90;;;;;;4935884;28;37197;-75
2023/11/10 03:58:35;;;;;;;5.30;1.30;;;7.80;99.90;;;;;;4953778;28;39145;-74
2023/11/10 04:01:01;;;;;;;11.40;2.23;;;7.80;99.90;;;;;;4933666;28;37268;-75
2023/11/10 04:03:28;;;;;;;8.67;1.43;;;7.80;99.90;;;;;;4951178;28;48403;-75
2023/11/10 04:05:54;;;;;;;7.27;1.60;;;7.80;99.90;;;;;;4950935;28;36106;-76
2023/11/10 04:08:20;;;;;;;9.90;1.57;;;7.80;99.90;;;;;;4932864;28;37498;-75
2023/11/10 04:10:47;;;;;;;4.90;1.90;;;7.80;99.90;;;;;;4953903;28;38275;-76
2023/11/10 04:13:13;;;;;;;8.27;1.73;;;7.80;99.90;;;;;;4935339;28;37228;-75
2023/11/10 04:15:39;;;;;;;8.93;2.33;;;7.80;99.90;;;;;;4944863;28;36189;-75
2023/11/10 04:18:05;;;;;;;7.70;1.83;;;7.80;99.90;;;;;;4940037;28;37440;-75
2023/11/10 04:20:34;;;;;;;9.27;1.87;;;7.80;99.90;;;;;;4931424;28;38212;-76
2023/11/10 04:23:00;;;;;;;7.90;1.73;;;7.80;99.90;;;;;;4942847;28;36776;-76
2023/11/10 04:25:26;;;;;;;7.33;1.63;;;7.80;99.90;;;;;;4946599;28;47739;-75
2023/11/10 04:27:54;;;;;;;11.30;2.30;;;7.80;99.90;;;;;;4931830;28;38801;-76
2023/11/10 04:30:20;;;;;;;8.13;1.97;;;7.80;99.90;;;;;;4936804;28;37275;-75
2023/11/10 04:32:47;;;;;;;12.43;2.20;;;7.80;99.90;;;;;;4942316;28;39441;-75
2023/11/10 04:35:13;;;;;;;8.43;1.83;;;7.80;99.90;;;;;;4937345;28;36652;-76
2023/11/10 04:37:40;;;;;;;9.13;2.03;;;7.80;99.90;;;;;;4935260;28;38120;-75
2023/11/10 04:40:09;;;;;;;6.83;2.30;;;7.80;99.90;;;;;;4935625;28;37306;-75
2023/11/10 04:42:36;;;;;;;8.00;2.27;;;7.80;99.90;;;;;;4952090;28;38806;-75
2023/11/10 04:45:02;;;;;;;10.23;1.90;;;7.80;99.90;;;;;;4952012;28;36089;-76
2023/11/10 04:47:28;;;;;;;10.10;2.40;;;7.80;99.90;;;;;;4934603;28;37878;-74
2023/11/10 04:49:54;;;;;;;8.30;2.20;;;7.80;99.90;;;;;;4932757;28;37625;-75
2023/11/10 04:52:20;;;;;;;14.33;2.10;;;7.80;99.90;;;;;;4949230;28;37828;-76
2023/11/10 04:54:47;;;;;;;9.50;1.60;;;7.80;99.90;;;;;;4950206;28;36624;-75
2023/11/10 04:57:13;;;;;;;10.30;1.73;;;7.80;99.90;;;;;;4935122;28;38113;-75
2023/11/10 04:59:40;;;;;;;7.73;1.83;;;7.80;99.90;;;;;;4952364;28;39868;-75
2023/11/10 05:02:08;;;;;;;11.93;1.90;;;7.80;99.90;;;;;;4951357;28;38811;-75
2023/11/10 05:04:39;;;;;;;8.20;2.10;;;7.90;99.90;;;;;;4935289;28;36065;-75
2023/11/10 05:07:08;;;;;;;8.67;1.87;;;7.90;99.90;;;;;;4941895;28;39520;-75
2023/11/10 05:09:35;;;;;;;11.03;2.00;;;8.00;99.90;;;;;;4947753;28;37294;-75
2023/11/10 05:12:01;;;;;;;11.10;2.20;;;8.00;99.90;;;;;;4946418;28;38580;-75
2023/11/10 05:14:27;;;;;;;12.53;2.17;;;8.00;99.90;;;;;;4950035;28;48465;-75
2023/11/10 05:16:53;;;;;;;6.23;2.07;;;8.00;99.90;;;;;;4956165;28;39727;-75
2023/11/10 05:19:19;;;;;;;11.07;1.80;;;8.00;99.90;;;;;;4946425;28;38730;-75
2023/11/10 05:21:45;;;;;;;6.57;1.73;;;8.00;99.90;;;;;;4938539;28;36853;-75
2023/11/10 05:24:12;;;;;;;10.60;2.40;;;8.00;99.90;;;;;;4953694;28;38321;-75
2023/11/10 05:26:38;;;;;;;7.47;1.53;;;7.90;99.90;;;;;;4938294;28;38206;-75
2023/11/10 05:29:04;;;;;;;7.23;2.13;;;7.90;99.90;;;;;;4951040;28;38228;-75
2023/11/10 05:31:31;;;;;;;6.23;2.33;;;7.90;99.90;;;;;;4951926;28;36800;-76
2023/11/10 05:33:58;;;;;;;11.50;2.67;;;7.80;99.90;;;;;;4934892;28;35993;-75
2023/11/10 05:36:25;;;;;;;6.57;2.30;;;7.90;99.90;;;;;;4951277;28;40630;-76
2023/11/10 05:38:51;;;;;;;7.13;2.60;;;7.90;99.90;;;;;;4936821;28;37405;-75
2023/11/10 05:41:18;;;;;;;7.23;2.53;;;7.90;99.90;;;;;;4932006;28;37992;-75
2023/11/10 05:43:47;;;;;;;11.77;3.17;;;7.90;99.90;;;;;;4926305;28;37197;-75
2023/11/10 05:46:14;;;;;;;11.10;3.43;;;7.90;99.90;;;;;;4954521;28;39102;-76
2023/11/10 05:48:40;;;;;;;14.93;3.23;;;7.90;99.90;;;;;;4956908;28;38487;-76
2023/11/10 05:51:06;;;;;;;7.20;2.50;;;7.90;99.90;;;;;;4940959;28;37693;-76
2023/11/10 05:53:32;;;;;;;11.97;3.30;;;7.90;99.90;;;;;;4959529;28;35760;-76
2023/11/10 05:56:00;;;;;;;11.07;2.23;;;7.90;99.90;;;;;;4953086;28;40137;-76
2023/11/10 05:58:26;;;;;;;8.30;2.13;;;7.90;99.90;;;;;;4937079;28;38573;-76
2023/11/10 06:00:52;;;;;;;9.37;2.40;;;7.90;99.90;;;;;;4934949;28;36649;-76
2023/11/10 06:03:19;;;;;;;13.60;2.27;;;7.90;99.90;;;;;;4942657;28;36607;-76
2023/11/10 06:05:45;;;;;;;11.60;2.63;;;8.00;99.90;;;;;;4923895;28;37472;-75
2023/11/10 06:08:14;;;;;;;8.70;2.17;;;8.00;99.90;;;;;;4934847;28;37702;-75
2023/11/10 06:10:42;;;;;;;9.17;2.63;;;8.10;99.90;;;;;;4936984;28;36790;-76
2023/11/10 06:13:09;;;;;;;4.93;1.87;;;8.10;99.90;;;;;;4932846;28;36670;-76
2023/11/10 06:15:35;;;;;;;9.10;1.93;;;8.10;99.90;;;;;;4953852;28;39017;-76
2023/11/10 06:18:01;;;;;;;8.87;2.37;;;8.20;99.90;;;;;;4932927;28;37089;-75
2023/11/10 06:20:28;;;;;;;8.50;2.00;;;8.20;99.90;;;;;;4949591;28;38265;-77
2023/11/10 06:22:54;;;;;;;6.43;1.93;;;8.20;99.90;;;;;;4928316;28;36472;-77
2023/11/10 06:25:20;;;;;;;7.40;1.73;;;8.20;99.90;;;;;;4949966;28;37437;-76
2023/11/10 06:27:46;;;;;;;6.90;2.17;;;8.20;99.90;;;;;;4945964;28;38188;-77
2023/11/10 06:30:12;;;;;;;7.97;1.73;;;8.20;99.90;;;;;;4940296;28;36821;-76
2023/11/10 06:32:38;;;;;;;5.27;1.80;;;8.30;99.90;;;;;;4929480;28;38617;-76
2023/11/10 06:35:05;;;;;;;12.03;2.00;;;8.30;99.90;;;;;;4942634;28;38123;-75
2023/11/10 06:37:31;;;;;;;5.23;2.00;;;8.20;99.90;;;;;;4949217;28;38171;-75
2023/11/10 06:39:57;;;;;;;9.20;1.93;;;8.20;99.90;;;;;;4953732;28;38893;-76
2023/11/10 06:42:33;;;;;;;11.70;3.00;;;8.20;99.90;;;;;;4947053;28;35289;-75
2023/11/10 06:45:02;;;;;;;9.90;2.23;;;8.20;99.90;;;;;;4953144;28;38592;-75
2023/11/10 06:47:29;;;;;;;9.60;2.40;;;8.20;99.90;;;;;;4936589;28;47439;-75
2023/11/10 06:49:55;;;;;;;10.10;2.50;;;8.20;99.90;;;;;;4936202;28;37204;-75
2023/11/10 06:52:22;;;;;;;7.80;2.80;;;8.20;99.90;;;;;;4953052;28;34640;-75
2023/11/10 06:54:48;;;;;;;10.70;2.80;;;8.20;99.90;;;;;;4953686;28;38700;-75
2023/11/10 06:57:16;;;;;;;7.63;2.83;;;8.20;99.90;;;;;;4954334;28;39523;-75
2023/11/10 06:59:43;;;;;;;7.13;2.87;;;8.20;99.90;;;;;;4935644;28;36922;-74
2023/11/10 07:02:12;;;;;;;9.27;3.70;;;8.20;99.90;;;;;;4922430;28;36175;-74
2023/11/10 07:04:39;;;;;;;10.40;3.63;;;8.20;99.90;;;;;;4935196;28;38288;-75
2023/11/10 07:07:05;;;;;;;10.17;3.40;;;8.20;99.90;;;;;;4952989;28;39156;-75
2023/11/10 07:09:31;;;;;;;9.17;3.10;;;8.20;99.90;;;;;;4963089;28;38859;-75
2023/11/10 07:11:57;;;;;;;11.43;3.63;;;8.20;99.90;;;;;;4937344;28;35979;-76
2023/11/10 07:14:23;;;;;;;9.93;3.17;;;8.20;99.90;;;;;;4952638;28;39880;-76
2023/11/10 07:16:50;;;;;;;11.90;3.17;;;8.20;99.90;;;;;;4936389;28;37515;-75
2023/11/10 07:19:18;;;;;;;14.03;3.30;;;8.20;99.90;;;;;;4952938;28;39936;-76
2023/11/10 07:21:48;;;;;;;11.67;2.93;;;8.10;99.90;;;;;;4935900;28;36177;-75
2023/11/10 07:24:14;;;;;;;11.23;2.90;;;8.20;99.90;;;;;;4934062;28;38246;-76
2023/11/10 07:26:41;;;;;;;9.03;2.67;;;8.20;99.90;;;;;;4937272;28;37803;-77
2023/11/10 07:29:07;;;;;;;13.37;3.40;;;8.20;99.90;;;;;;4937160;28;36963;-76
2023/11/10 07:31:33;;;;;;;11.17;2.67;;;8.20;99.90;;;;;;4951234;28;37159;-77
2023/11/10 07:33:59;;;;;;;10.10;2.90;;;8.20;99.90;;;;;;4956321;28;39093;-77
2023/11/10 07:36:25;;;;;;;12.10;2.80;;;8.20;99.90;;;;;;4933697;28;37997;-76
2023/11/10 07:38:52;;;;;;;10.83;2.93;;;8.20;99.90;;;;;;4932587;28;36805;-77
2023/11/10 07:41:19;;;;;;;11.97;2.83;;;8.20;99.90;;;;;;4931778;28;37343;-76
2023/11/10 07:43:45;;;;;;;8.87;2.77;;;8.20;99.90;;;;;;4930299;28;38663;-77
2023/11/10 07:46:11;;;;;;;9.13;3.00;;;8.20;99.90;;;;;;4932926;28;37389;-77
2023/11/10 07:48:38;;;;;;;10.60;2.53;;;8.30;99.90;;;;;;4951902;28;38983;-76
2023/11/10 07:51:04;;;;;;;12.90;3.30;;;8.30;99.90;;;;;;4952936;28;37200;-75
2023/11/10 07:53:31;;;;;;;12.70;3.23;;;8.30;99.90;;;;;;4949948;28;37876;-76
2023/11/10 07:55:57;;;;;;;7.73;2.47;;;8.30;99.90;;;;;;4942389;28;38847;-76
2023/11/10 07:58:23;;;;;;;5.67;2.10;;;8.30;99.90;;;;;;4953744;28;39205;-76
2023/11/10 08:00:50;;;;;;;11.60;2.70;;;8.30;99.90;;;;;;4940674;28;36209;-76
2023/11/10 08:03:17;;;;;;;12.37;2.80;;;8.40;99.90;;;;;;4934797;28;37613;-76
2023/11/10 08:05:44;;;;;;;9.87;2.50;;;8.40;99.90;;;;;;4953203;28;38206;-77
2023/11/10 08:08:10;;;;;;;11.77;2.30;;;8.40;99.90;;;;;;4936577;28;37177;-76
2023/11/10 08:10:37;;;;;;;9.07;2.40;;;8.40;99.90;;;;;;4960029;28;36007;-76
2023/11/10 08:13:03;;;;;;;10.33;2.30;;;8.40;99.90;;;;;;4930407;28;38167;-76
2023/11/10 08:15:29;;;;;;;14.40;2.40;;;8.40;99.90;;;;;;4944690;28;38387;-76
2023/11/10 08:17:55;;;;;;;6.80;1.97;;;8.40;99.90;;;;;;4937175;28;37540;-76
2023/11/10 08:20:24;;;;;;;16.63;2.13;;;8.40;99.90;;;;;;4959806;28;37204;-76
2023/11/10 08:22:50;;;;;;;9.77;1.43;;;8.40;99.90;;;;;;4962911;28;39913;-76
2023/11/10 08:25:16;;;;;;;13.80;2.03;;;8.40;99.90;;;;;;4939717;28;39016;-75
2023/11/10 08:27:42;;;;;;;7.50;2.00;;;8.50;99.90;;;;;;4954820;28;39126;-76
2023/11/10 08:30:09;;;;;;;5.63;1.43;;;8.50;99.90;;;;;;4935333;28;35812;-76
2023/11/10 08:32:36;;;;;;;7.17;1.40;;;8.60;99.90;;;;;;4933872;28;37738;-75
2023/11/10 08:35:02;;;;;;;6.20;1.47;;;8.60;99.90;;;;;;4950950;28;38766;-77
2023/11/10 08:37:29;;;;;;;9.03;1.77;;;8.60;99.90;;;;;;4934041;28;37065;-76
2023/11/10 08:39:55;;;;;;;10.53;1.73;;;8.60;99.90;;;;;;4940640;28;36044;-76
2023/11/10 08:42:21;;;;;;;7.20;1.40;;;8.70;99.90;;;;;;4948313;28;38765;-76
2023/11/10 08:44:47;;;;;;;6.77;1.57;;;8.70;99.90;;;;;;4952062;28;38441;-76
2023/11/10 08:47:14;;;;;;;7.40;1.67;;;8.60;99.90;;;;;;4924909;28;37000;-76
2023/11/10 08:49:44;;;;;;;6.90;1.80;;;8.70;99.90;;;;;;4933144;28;36323;-76
2023/11/10 08:52:10;;;;;;;8.13;1.57;;;8.70;99.90;;;;;;4949756;28;38626;-76
2023/11/10 08:54:37;;;;;;;8.40;2.27;;;8.60;99.90;;;;;;4932683;28;37394;-75
2023/11/10 08:57:03;;;;;;;4.07;1.50;;;8.60;99.90;;;;;;4933697;28;36853;-75
2023/11/10 08:59:30;;;;;;;7.73;1.80;;;8.60;99.90;;;;;;4949073;28;36397;-75
2023/11/10 09:01:58;;;;;;;5.30;2.13;;;8.60;99.90;;;;;;4928509;28;38905;-75
2023/11/10 09:04:24;;;;;;;5.70;1.93;;;8.60;99.90;;;;;;4932834;28;37646;-75
2023/11/10 09:06:50;;;;;;;6.83;2.27;;;8.60;99.90;;;;;;4951190;28;38989;-76
2023/11/10 09:09:17;;;;;;;7.17;2.20;;;8.60;99.90;;;;;;4946525;28;36256;-76
2023/11/10 09:11:43;;;;;;;6.83;1.90;;;8.60;99.90;;;;;;4931940;28;37625;-75
2023/11/10 09:14:13;;;;;;;5.90;1.80;;;8.60;99.90;;;;;;4932572;28;37401;-76
2023/11/10 09:16:40;;;;;;;4.97;2.07;;;8.60;99.90;;;;;;4951556;28;38724;-76
2023/11/10 09:19:06;;;;;;;5.83;2.40;;;8.60;99.90;;;;;;4938647;28;35844;-76
2023/11/10 09:21:32;;;;;;;7.43;2.10;;;8.60;99.90;;;;;;4952000;28;38459;-76
2023/11/10 09:23:59;;;;;;;6.70;2.37;;;8.60;99.90;;;;;;4934715;28;37139;-76
2023/11/10 09:26:25;;;;;;;6.20;1.90;;;8.60;99.90;;;;;;4935843;28;36796;-76
2023/11/10 09:28:52;;;;;;;8.63;2.13;;;8.60;99.90;;;;;;4955478;28;37266;-76
2023/11/10 09:31:18;;;;;;;6.27;2.80;;;8.60;99.90;;;;;;4960057;28;38931;-76
2023/11/10 09:33:44;;;;;;;11.33;2.23;;;8.60;99.90;;;;;;4931376;28;37231;-76
2023/11/10 09:36:10;;;;;;;9.33;2.80;;;8.60;99.90;;;;;;4936537;28;36934;-76
2023/11/10 09:38:38;;;;;;;8.33;2.67;;;8.60;99.90;;;;;;4928399;28;36095;-76
2023/11/10 09:41:05;;;;;;;9.27;2.70;;;8.70;99.90;;;;;;4933287;28;39529;-76
2023/11/10 09:43:32;;;;;;;7.97;2.50;;;8.70;99.90;;;;;;4954022;28;37750;-75
2023/11/10 09:46:02;;;;;;;13.90;3.33;;;8.80;99.90;;;;;;4931899;28;37132;-75
2023/11/10 09:48:30;;;;;;;7.97;2.70;;;8.80;99.90;;;;;;4946535;28;49617;-76
2023/11/10 09:50:59;;;;;;;6.20;2.30;;;8.90;99.90;;;;;;4930170;28;38660;-76
2023/11/10 09:53:26;;;;;;;9.40;2.83;;;8.90;99.90;;;;;;4949055;28;38245;-76
2023/11/10 09:55:53;;;;;;;8.30;2.17;;;9.00;99.90;;;;;;4948193;28;37687;-75
2023/11/10 09:58:20;;;;;;;7.47;2.63;;;9.00;99.90;;;;;;4933033;28;36161;-76
2023/11/10 10:00:48;;;;;;;10.37;2.50;;;9.10;99.90;;;;;;4934434;28;39214;-76
2023/11/10 10:03:14;;;;;;;12.07;2.73;;;9.10;99.90;;;;;;4944589;28;38276;-76
2023/11/10 10:05:41;;;;;;;9.90;2.53;;;9.10;99.90;;;;;;4963464;28;37608;-76
2023/11/10 10:08:07;;;;;;;12.13;2.63;;;9.10;99.90;;;;;;4940304;28;36837;-75
2023/11/10 10:10:37;;;;;;;7.70;2.27;;;9.10;99.90;;;;;;4959073;28;38856;-76
2023/11/10 10:13:03;;;;;;;5.97;1.90;;;9.10;99.90;;;;;;4940824;28;37132;-76
2023/11/10 10:15:31;;;;;;;6.80;2.03;;;9.10;99.90;;;;;;4958638;28;39307;-76
2023/11/10 10:18:05;;;;;;;6.77;1.83;;;9.20;99.90;;;;;;4945746;28;36351;-77
2023/11/10 10:20:31;;;;;;;8.43;1.83;;;9.30;99.90;;;;;;4947151;28;48404;-77
2023/11/10 10:22:58;;;;;;;8.40;2.07;;;9.30;99.90;;;;;;4946671;28;38304;-75
2023/11/10 10:25:24;;;;;;;10.80;2.23;;;9.40;99.90;;;;;;4947587;28;37978;-76
2023/11/10 10:27:50;;;;;;;7.13;1.90;;;9.40;99.90;;;;;;4946301;28;36848;-76
2023/11/10 10:30:20;;;;;;;6.50;2.00;;;9.40;99.90;;;;;;4933168;28;37671;-77
2023/11/10 10:32:47;;;;;;;6.17;1.90;;;9.50;99.90;;;;;;4939113;28;37376;-77
2023/11/10 10:35:14;;;;;;;9.77;2.50;;;9.50;99.90;;;;;;4938011;28;36952;-76
2023/11/10 10:37:41;;;;;;;10.03;2.60;;;9.60;99.90;;;;;;4932873;28;37393;-76
2023/11/10 10:40:13;;;;;;;8.07;2.00;;;9.60;99.90;;;;;;4954184;28;38694;-76
2023/11/10 10:42:43;;;;;;;;;;;9.70;99.90;;;;;;4957037;28;39207;-76
2023/11/10 10:45:11;;;;;;;9.27;2.10;;;9.70;99.90;;;;;;4940342;28;38206;-76
2023/11/10 10:47:38;;;;;;;9.03;1.80;;;9.80;99.90;;;;;;4937855;28;35816;-76
2023/11/10 10:50:07;;;;;;;7.93;1.70;;;9.90;99.90;;;;;;4947272;28;38655;-76
2023/11/10 10:52:34;;;;;;;10.37;1.80;;;10.00;99.90;;;;;;4927983;28;47383;-76
2023/11/10 10:55:05;;;;;;;4.80;1.70;;;10.00;99.90;;;;;;4936292;28;37016;-77
2023/11/10 10:57:37;;;;;;;8.97;1.70;;;10.00;99.90;;;;;;4950649;28;47253;-77
2023/11/10 11:00:16;;;;;;;4.57;1.23;;;10.00;99.90;;;;;;4947008;28;39841;-78
2023/11/10 11:02:58;;;;;;;9.23;2.27;;;9.90;99.90;;;;;;4943871;28;39315;-78
2023/11/10 11:05:36;;;;;;;6.73;1.53;;;9.90;99.90;;;;;;4943241;28;37682;-78
2023/11/10 11:08:44;;;;;;;5.70;1.10;;;9.80;99.90;;;;;;4948731;28;37041;-77
2023/11/10 11:11:31;;;;;;;8.13;1.77;;;9.70;99.90;;;;;;4931853;28;38150;-78
2023/11/10 11:14:05;;;;;;;7.83;1.70;;;9.70;99.90;;;;;;4944058;28;37205;-78
2023/11/10 11:16:34;;;;;;;5.63;1.40;;;9.60;99.90;;;;;;4938886;28;47238;-79
2023/11/10 11:19:01;;;;;;;8.57;2.53;;;9.40;99.90;;;;;;4953383;28;37681;-79
2023/11/10 11:21:30;;;;;;;7.67;1.50;;;9.30;99.90;;;;;;4945389;28;47494;-77
2023/11/10 11:24:00;;;;;;;9.37;1.80;;;9.20;99.90;;;;;;4952802;28;38275;-78
2023/11/10 11:26:27;;;;;;;5.63;1.40;;;9.20;99.90;;;;;;4934460;28;46602;-78
2023/11/10 11:29:07;;;;;;;5.00;1.57;;;9.10;99.90;;;;;;4936789;28;36043;-78
2023/11/10 11:31:44;;;;;;;3.10;1.50;;;9.10;99.90;;;;;;4953682;28;49354;-77
2023/11/10 11:34:19;;;;;;;5.50;1.80;;;9.10;99.90;;;;;;4942388;28;38786;-77
2023/11/10 11:36:46;;;;;;;8.23;1.97;;;9.10;99.90;;;;;;4932949;28;36861;-77
2023/11/10 11:39:15;;;;;;;10.23;2.07;;;9.00;99.90;;;;;;4936867;28;35799;-79
2023/11/10 11:41:55;;;;;;;7.70;2.00;;;9.00;99.90;;;;;;4933744;28;38569;-79
2023/11/10 11:44:41;;;;;;;7.50;1.57;;;9.00;99.90;;;;;;4934649;28;38610;-78
2023/11/10 11:47:11;;;;;;;6.00;1.80;;;8.90;99.90;;;;;;4952595;28;36902;-78
2023/11/10 11:49:41;;;;;;;7.50;1.70;;;8.90;99.90;;;;;;4949247;28;36925;-78
2023/11/10 11:52:09;;;;;;;6.90;2.00;;;8.90;99.90;;;;;;4933807;28;38015;-77
2023/11/10 11:54:35;;;;;;;9.33;1.93;;;8.90;99.90;;;;;;4935470;28;38019;-78
2023/11/10 11:57:02;;;;;;;8.13;2.70;;;8.90;99.90;;;;;;4936273;28;37891;-78
2023/11/10 11:59:28;;;;;;;8.80;1.97;;;8.90;99.90;;;;;;4933369;28;35947;-78
2023/11/10 12:01:55;;;;;;;5.37;1.67;;;8.90;99.90;;;;;;4940155;28;38790;-78
2023/11/10 12:04:22;;;;;;;5.77;2.10;;;8.90;99.90;;;;;;4954410;28;39445;-77
2023/11/10 12:06:49;;;;;;;7.40;1.87;;;9.00;99.90;;;;;;4954309;28;38545;-77
2023/11/10 12:09:17;;;;;;;7.30;2.40;;;8.90;99.90;;;;;;4935462;28;36267;-79
2023/11/10 12:11:45;;;;;;;5.80;2.00;;;8.90;99.90;;;;;;4950869;28;39251;-77
2023/11/10 12:14:12;;;;;;;7.90;1.70;;;8.90;99.90;;;;;;4937708;28;38605;-77
2023/11/10 12:16:41;;;;;;;4.07;1.43;;;8.90;99.90;;;;;;4953454;28;38519;-77
2023/11/10 12:19:10;;;;;;;11.87;2.23;;;8.90;99.90;;;;;;4937689;28;36818;-77
2023/11/10 12:21:37;;;;;;;7.87;2.43;;;8.90;99.90;;;;;;4951517;28;39009;-77
2023/11/10 12:24:07;;;;;;;9.90;2.70;;;8.90;99.90;;;;;;4938094;28;37089;-77
2023/11/10 12:26:36;;;;;;;9.00;2.83;;;9.00;99.90;;;;;;4956768;28;38700;-77
2023/11/10 12:29:23;;;;;;;8.67;2.13;;;9.00;99.90;;;;;;4937027;28;37478;-79
2023/11/10 12:31:49;;;;;;;8.53;1.83;;;9.10;99.90;;;;;;4955030;28;38420;-80
2023/11/10 12:34:26;;;;;;;6.80;2.20;;;9.10;99.90;;;;;;4976742;28;38053;-82
2023/11/10 12:39:36;;;;;;;10.97;3.20;;;9.10;99.90;;;;;;5112841;23;20051;-80
2023/11/10 12:42:05;;;;;;;11.23;3.47;;;9.10;99.90;;;;;;4968644;28;39330;-76
2023/11/10 12:44:32;;;;;;;8.97;3.33;;;9.10;99.90;;;;;;4964034;28;38175;-78
2023/11/10 12:47:00;;;;;;;12.73;2.57;;;9.10;99.90;;;;;;4965453;28;40066;-78
2023/11/10 12:49:31;;;;;;;9.43;2.20;;;9.10;99.90;;;;;;4944399;28;35613;-78
2023/11/10 12:52:00;;;;;;;5.73;1.77;;;9.10;99.90;;;;;;4952948;28;38988;-78
2023/11/10 12:54:28;;;;;;;7.40;2.07;;;9.10;99.90;;;;;;4953212;28;38819;-78
2023/11/10 12:56:56;;;;;;;7.40;1.93;;;9.10;99.90;;;;;;4969323;28;38516;-78
2023/11/10 12:59:29;;;;;;;7.67;2.13;;;9.10;99.90;;;;;;4964793;28;36360;-78
2023/11/10 13:01:56;;;;;;;;;;;9.10;99.90;;;;;;4953773;28;38647;-78